createdAt,value
2023-04-11T00:00:35.122Z,96970.13
2023-04-11T00:03:01.925Z,96965.34
2023-04-11T00:05:28.852Z,96946.75
2023-04-11T00:07:55.498Z,96940.59
2023-04-11T00:10:22.110Z,96943.31
2023-04-11T00:12:48.771Z,96939.47
2023-04-11T00:15:15.407Z,96944.97
2023-04-11T00:17:45.106Z,96945.81
2023-04-11T00:20:14.776Z,96943.22
2023-04-11T00:22:41.380Z,96942.00
2023-04-11T00:25:08.337Z,96948.50
2023-04-11T00:27:34.921Z,96942.00
2023-04-11T00:30:01.578Z,96958.47
2023-04-11T00:32:28.242Z,96971.22
2023-04-11T00:34:54.858Z,96977.25
2023-04-11T00:37:21.457Z,96966.94
2023-04-11T00:39:48.646Z,96960.94
2023-04-11T00:42:15.272Z,96948.47
2023-04-11T00:44:41.860Z,96935.66
2023-04-11T00:47:08.464Z,96930.25
2023-04-11T00:49:35.500Z,96936.09
2023-04-11T00:52:02.686Z,96938.47
2023-04-11T00:54:30.096Z,96934.25
2023-04-11T00:57:01.560Z,96931.94
2023-04-11T00:59:28.753Z,96911.16
2023-04-11T01:01:55.920Z,96924.88
2023-04-11T01:04:22.729Z,96920.31
2023-04-11T01:06:51.091Z,96898.69
2023-04-11T01:09:17.772Z,96906.59
2023-04-11T01:11:44.386Z,96914.84
2023-04-11T01:14:10.998Z,96917.66
2023-04-11T01:16:37.617Z,96917.09
2023-04-11T01:19:04.317Z,96915.69
2023-04-11T01:21:30.920Z,96925.19
2023-04-11T01:23:57.565Z,96917.00
2023-04-11T01:26:24.202Z,96932.72
2023-04-11T01:28:51.363Z,96933.81
2023-04-11T01:31:18.143Z,96944.69
2023-04-11T01:33:44.800Z,96947.47
2023-04-11T01:36:12.040Z,96940.41
2023-04-11T01:38:38.776Z,96932.81
2023-04-11T01:41:06.537Z,96931.75
2023-04-11T01:43:33.205Z,96927.84
2023-04-11T01:45:59.884Z,96938.91
2023-04-11T01:48:26.621Z,96952.88
2023-04-11T01:50:53.401Z,96958.50
2023-04-11T01:53:20.044Z,96959.47
2023-04-11T01:55:46.665Z,96964.94
2023-04-11T01:58:13.380Z,96967.59
2023-04-11T02:00:40.047Z,96964.94
2023-04-11T02:03:06.910Z,96959.00
2023-04-11T02:05:33.619Z,96950.72
2023-04-11T02:08:00.289Z,96954.56
2023-04-11T02:10:26.898Z,96949.66
2023-04-11T02:12:53.507Z,96941.94
2023-04-11T02:15:20.163Z,96946.03
2023-04-11T02:17:46.853Z,96944.31
2023-04-11T02:20:13.704Z,96946.56
2023-04-11T02:22:40.750Z,96962.66
2023-04-11T02:25:07.842Z,96966.88
2023-04-11T02:27:34.518Z,96957.59
2023-04-11T02:30:01.135Z,96959.63
2023-04-11T02:32:27.869Z,96956.31
2023-04-11T02:34:54.540Z,96939.50
2023-04-11T02:37:21.146Z,96947.97
2023-04-11T02:39:47.809Z,96944.38
2023-04-11T02:42:14.439Z,96951.38
2023-04-11T02:44:41.094Z,96957.72
2023-04-11T02:47:07.724Z,96956.91
2023-04-11T02:49:34.400Z,96959.50
2023-04-11T02:52:01.005Z,96962.66
2023-04-11T02:54:27.660Z,96965.84
2023-04-11T02:56:54.365Z,96968.91
2023-04-11T02:59:21.056Z,96967.03
2023-04-11T03:01:47.808Z,96972.78
2023-04-11T03:04:14.599Z,96985.72
2023-04-11T03:06:41.283Z,96991.09
2023-04-11T03:09:07.887Z,96994.97
2023-04-11T03:11:34.548Z,96988.47
2023-04-11T03:14:01.243Z,97001.81
2023-04-11T03:16:27.926Z,96995.59
2023-04-11T03:18:54.774Z,96996.75
2023-04-11T03:21:21.547Z,96982.56
2023-04-11T03:23:48.167Z,96973.63
2023-04-11T03:26:14.790Z,96975.47
2023-04-11T03:28:41.440Z,96974.19
2023-04-11T03:31:08.066Z,96992.38
2023-04-11T03:33:34.673Z,96977.00
2023-04-11T03:36:01.343Z,96985.22
2023-04-11T03:38:28.035Z,96988.97
2023-04-11T03:40:54.671Z,96992.63
2023-04-11T03:43:21.493Z,96984.66
2023-04-11T03:45:48.123Z,96979.50
2023-04-11T03:48:14.817Z,96977.59
2023-04-11T03:50:41.467Z,96960.00
2023-04-11T03:53:08.075Z,96962.59
2023-04-11T03:55:34.668Z,96952.63
2023-04-11T03:58:01.345Z,96947.00
2023-04-11T04:00:27.981Z,96942.41
2023-04-11T04:02:54.743Z,96943.56
2023-04-11T04:05:21.584Z,96954.94
2023-04-11T04:07:48.197Z,96955.22
2023-04-11T04:10:14.800Z,96956.00
2023-04-11T04:12:41.437Z,96946.63
2023-04-11T04:15:08.414Z,96946.53
2023-04-11T04:17:35.206Z,96941.50
2023-04-11T04:20:02.008Z,96937.13
2023-04-11T04:22:29.883Z,96947.22
2023-04-11T04:24:56.582Z,96949.47
2023-04-11T04:27:23.276Z,96952.16
2023-04-11T04:29:59.851Z,96953.69
2023-04-11T04:32:30.628Z,96960.25
2023-04-11T04:34:58.043Z,96950.84
2023-04-11T04:37:25.243Z,96950.13
2023-04-11T04:39:52.582Z,96958.22
2023-04-11T04:42:19.598Z,96961.50
2023-04-11T04:44:46.289Z,96965.84
2023-04-11T04:47:12.948Z,96971.69
2023-04-11T04:49:39.583Z,96977.06
2023-04-11T04:52:06.223Z,96997.09
2023-04-11T04:54:32.855Z,96995.88
2023-04-11T04:56:59.512Z,97002.53
2023-04-11T04:59:26.141Z,97013.19
2023-04-11T05:01:52.986Z,97020.06
2023-04-11T05:04:21.186Z,97019.69
2023-04-11T05:06:47.978Z,97022.03
2023-04-11T05:09:14.694Z,97018.13
2023-04-11T05:11:41.407Z,97011.81
2023-04-11T05:14:08.178Z,97013.47
2023-04-11T05:16:34.843Z,97003.28
2023-04-11T05:19:01.540Z,97006.72
2023-04-11T05:21:28.128Z,97009.34
2023-04-11T05:23:54.943Z,97020.56
2023-04-11T05:26:21.721Z,97016.53
2023-04-11T05:28:48.356Z,97020.16
2023-04-11T05:31:15.066Z,97014.97
2023-04-11T05:33:41.744Z,97022.88
2023-04-11T05:36:08.662Z,97023.91
2023-04-11T05:38:35.314Z,97029.53
2023-04-11T05:41:01.963Z,97034.03
2023-04-11T05:43:28.758Z,97033.50
2023-04-11T05:45:55.478Z,97038.69
2023-04-11T05:48:22.156Z,97052.97
2023-04-11T05:50:49.915Z,97053.91
2023-04-11T05:53:16.547Z,97064.44
2023-04-11T05:55:43.172Z,97066.75
2023-04-11T05:58:10.182Z,97047.56
2023-04-11T06:00:37.687Z,97057.50
2023-04-11T06:03:05.008Z,97058.19
2023-04-11T06:05:32.045Z,97058.34
2023-04-11T06:07:58.726Z,97055.38
2023-04-11T06:10:25.768Z,97069.66
2023-04-11T06:12:52.522Z,97088.81
2023-04-11T06:15:19.190Z,97086.47
2023-04-11T06:17:45.828Z,97076.69
2023-04-11T06:20:12.618Z,97079.00
2023-04-11T06:22:39.265Z,97089.84
2023-04-11T06:25:06.974Z,97091.13
2023-04-11T06:27:33.725Z,97091.47
2023-04-11T06:30:00.362Z,97080.84
2023-04-11T06:32:27.117Z,97080.72
2023-04-11T06:34:53.758Z,97071.34
2023-04-11T06:37:20.710Z,97062.16
2023-04-11T06:39:47.436Z,97065.19
2023-04-11T06:42:14.133Z,97080.81
2023-04-11T06:44:40.869Z,97078.81
2023-04-11T06:47:07.613Z,97074.16
2023-04-11T06:49:34.294Z,97076.25
2023-04-11T06:52:01.027Z,97071.88
2023-04-11T06:54:27.705Z,97083.97
2023-04-11T06:56:54.309Z,97086.91
2023-04-11T06:59:21.052Z,97100.16
2023-04-11T07:01:48.564Z,97102.63
2023-04-11T07:04:15.469Z,97099.50
2023-04-11T07:06:42.178Z,97099.59
2023-04-11T07:09:08.797Z,97103.69
2023-04-11T07:11:35.424Z,97097.91
2023-04-11T07:14:02.153Z,97092.88
2023-04-11T07:16:28.823Z,97092.31
2023-04-11T07:18:55.529Z,97100.75
2023-04-11T07:21:22.181Z,97087.19
2023-04-11T07:23:48.832Z,97097.22
2023-04-11T07:26:15.428Z,97097.22
2023-04-11T07:28:42.094Z,97103.88
2023-04-11T07:31:08.802Z,97109.91
2023-04-11T07:33:35.818Z,97101.81
2023-04-11T07:36:02.709Z,97102.19
2023-04-11T07:38:29.378Z,97096.41
2023-04-11T07:40:56.563Z,97095.81
2023-04-11T07:43:26.375Z,97100.53
2023-04-11T07:45:53.470Z,97100.19
2023-04-11T07:48:23.291Z,97087.63
2023-04-11T07:50:49.906Z,97081.91
2023-04-11T07:53:16.596Z,97082.13
2023-04-11T07:55:43.235Z,97083.56
2023-04-11T07:58:09.862Z,97083.75
2023-04-11T08:00:36.512Z,97085.88
2023-04-11T08:03:07.149Z,97078.75
2023-04-11T08:05:34.865Z,97075.78
2023-04-11T08:08:03.093Z,97078.16
2023-04-11T08:10:29.718Z,97069.47
2023-04-11T08:12:56.448Z,97066.28
2023-04-11T08:15:23.051Z,97066.41
2023-04-11T08:17:49.732Z,97075.00
2023-04-11T08:20:16.647Z,97079.56
2023-04-11T08:22:43.318Z,97075.22
2023-04-11T08:25:10.882Z,97077.06
2023-04-11T08:27:37.994Z,97072.03
2023-04-11T08:30:05.635Z,97081.19
2023-04-11T08:32:32.417Z,97075.91
2023-04-11T08:34:59.132Z,97086.59
2023-04-11T08:37:25.809Z,97078.97
2023-04-11T08:39:52.409Z,97093.88
2023-04-11T08:42:25.569Z,97095.63
2023-04-11T08:45:05.661Z,97103.72
2023-04-11T08:47:32.363Z,97107.25
2023-04-11T08:49:59.087Z,97103.59
2023-04-11T08:52:25.716Z,97109.81
2023-04-11T08:54:52.929Z,97101.72
2023-04-11T08:57:29.524Z,97105.34
2023-04-11T08:59:57.270Z,97111.66
2023-04-11T09:02:24.088Z,97103.44
2023-04-11T09:04:51.077Z,97095.31
2023-04-11T09:07:17.757Z,97100.31
2023-04-11T09:09:44.506Z,97097.56
2023-04-11T09:12:11.963Z,97096.09
2023-04-11T09:14:38.599Z,97096.09
2023-04-11T09:17:07.001Z,97102.69
2023-04-11T09:19:34.500Z,97091.78
2023-04-11T09:22:02.385Z,97091.97
2023-04-11T09:24:29.062Z,97088.72
2023-04-11T09:27:10.767Z,97091.53
2023-04-11T09:29:41.262Z,97092.03
2023-04-11T09:32:08.097Z,97095.50
2023-04-11T09:34:35.192Z,97098.59
2023-04-11T09:37:02.139Z,97094.13
2023-04-11T09:39:28.796Z,97107.22
2023-04-11T09:41:55.532Z,97106.75
2023-04-11T09:44:37.760Z,97095.91
2023-04-11T09:47:04.704Z,97094.19
2023-04-11T09:49:31.483Z,97095.84
2023-04-11T09:51:58.119Z,97091.44
2023-04-11T09:54:24.809Z,97086.06
2023-04-11T09:56:51.756Z,97081.22
2023-04-11T09:59:18.485Z,97080.47
2023-04-11T10:01:45.200Z,97081.53
2023-04-11T10:04:11.968Z,97088.38
2023-04-11T10:06:53.254Z,97079.91
2023-04-11T10:09:19.862Z,97079.94
2023-04-11T10:11:46.527Z,97082.22
2023-04-11T10:14:42.595Z,97078.75
2023-04-11T10:17:22.137Z,97081.00
2023-04-11T10:19:56.940Z,97073.06
2023-04-11T10:22:57.416Z,97068.69
2023-04-11T10:25:24.612Z,97066.75
2023-04-11T10:27:52.522Z,97062.00
2023-04-11T10:30:19.417Z,97064.97
2023-04-11T10:33:11.777Z,97060.38
2023-04-11T10:36:02.488Z,97063.09
2023-04-11T10:38:41.433Z,97064.66
2023-04-11T10:41:23.958Z,97063.78
2023-04-11T10:43:50.849Z,97068.97
2023-04-11T10:46:21.373Z,97061.06
2023-04-11T10:49:04.209Z,97066.06
2023-04-11T10:51:32.168Z,97063.22
2023-04-11T10:53:59.603Z,97052.59
2023-04-11T10:56:52.272Z,97056.00
2023-04-11T10:59:30.780Z,97054.88
2023-04-11T11:01:58.027Z,97056.91
2023-04-11T11:04:35.061Z,97050.25
2023-04-11T11:07:02.800Z,97051.50
2023-04-11T11:09:29.672Z,97052.81
2023-04-11T11:12:09.512Z,97064.53
2023-04-11T11:14:43.577Z,97058.50
2023-04-11T11:17:11.847Z,97055.22
2023-04-11T11:19:42.924Z,97056.84
2023-04-11T11:22:19.105Z,97045.72
2023-04-11T11:24:45.832Z,97051.47
2023-04-11T11:27:22.013Z,97044.66
2023-04-11T11:29:48.712Z,97058.94
2023-04-11T11:32:24.849Z,97063.66
2023-04-11T11:34:51.575Z,97057.44
2023-04-11T11:37:18.207Z,97068.44
2023-04-11T11:39:44.868Z,97064.16
2023-04-11T11:42:11.682Z,97058.38
2023-04-11T11:44:38.366Z,97049.84
2023-04-11T11:47:05.591Z,97056.88
2023-04-11T11:49:51.228Z,97064.34
2023-04-11T11:52:41.655Z,97071.31
2023-04-11T11:55:28.869Z,97066.25
2023-04-11T11:57:59.279Z,97060.41
2023-04-11T12:00:26.590Z,97053.09
2023-04-11T12:02:54.142Z,97041.50
2023-04-11T12:05:21.065Z,97036.63
2023-04-11T12:07:47.862Z,97046.81
2023-04-11T12:10:15.421Z,97030.63
2023-04-11T12:12:42.805Z,97035.41
2023-04-11T12:15:16.871Z,97038.53
2023-04-11T12:17:43.655Z,97039.75
2023-04-11T12:20:10.530Z,97047.34
2023-04-11T12:22:37.616Z,97048.22
2023-04-11T12:25:05.191Z,97042.78
2023-04-11T12:27:31.903Z,97049.44
2023-04-11T12:29:58.576Z,97048.91
2023-04-11T12:32:25.253Z,97051.94
2023-04-11T12:34:51.855Z,97042.06
2023-04-11T12:37:18.509Z,97038.69
2023-04-11T12:39:45.160Z,97034.44
2023-04-11T12:42:12.062Z,97043.84
2023-04-11T12:44:38.955Z,97049.09
2023-04-11T12:47:05.696Z,97045.56
2023-04-11T12:49:32.384Z,97047.38
2023-04-11T12:51:59.018Z,97050.97
2023-04-11T12:54:25.755Z,97035.75
2023-04-11T12:56:52.347Z,97038.44
2023-04-11T12:59:19.011Z,97031.75
2023-04-11T13:01:45.683Z,97033.88
2023-04-11T13:04:12.887Z,97035.19
2023-04-11T13:06:39.649Z,97030.56
2023-04-11T13:09:07.563Z,97021.06
2023-04-11T13:11:34.474Z,97017.63
2023-04-11T13:14:01.137Z,97015.53
2023-04-11T13:16:27.765Z,97016.50
2023-04-11T13:18:54.634Z,97013.47
2023-04-11T13:21:21.931Z,97021.94
2023-04-11T13:23:48.607Z,97013.38
2023-04-11T13:26:15.220Z,97007.22
2023-04-11T13:28:41.851Z,97008.19
2023-04-11T13:31:08.558Z,97007.44
2023-04-11T13:33:35.175Z,96999.03
2023-04-11T13:36:02.020Z,97003.34
2023-04-11T13:38:29.008Z,96999.06
2023-04-11T13:40:55.644Z,96996.50
2023-04-11T13:43:22.243Z,96991.00
2023-04-11T13:45:48.860Z,96997.56
2023-04-11T13:48:15.554Z,96981.28
2023-04-11T13:50:42.274Z,96977.28
2023-04-11T13:53:09.698Z,96981.16
2023-04-11T13:55:36.394Z,96983.69
2023-04-11T13:58:03.042Z,96980.50
2023-04-11T14:00:29.636Z,96983.84
2023-04-11T14:02:56.435Z,96966.88
2023-04-11T14:05:23.189Z,96964.06
2023-04-11T14:07:49.795Z,96963.38
2023-04-11T14:10:16.389Z,96969.72
2023-04-11T14:12:43.020Z,96965.47
2023-04-11T14:15:10.220Z,96959.59
2023-04-11T14:17:36.877Z,96966.34
2023-04-11T14:20:03.585Z,96966.06
2023-04-11T14:22:30.192Z,96966.19
2023-04-11T14:24:56.814Z,96963.03
2023-04-11T14:27:23.464Z,96965.19
2023-04-11T14:29:50.096Z,96953.44
2023-04-11T14:32:16.681Z,96952.03
2023-04-11T14:34:43.326Z,96945.81
2023-04-11T14:37:10.019Z,96954.91
2023-04-11T14:39:36.674Z,96942.97
2023-04-11T14:42:03.386Z,96947.06
2023-04-11T14:44:30.077Z,96949.91
2023-04-11T14:46:56.767Z,96937.84
2023-04-11T14:49:23.395Z,96939.16
2023-04-11T14:51:50.033Z,96925.44
2023-04-11T14:54:16.657Z,96924.94
2023-04-11T14:56:43.334Z,96930.50
2023-04-11T14:59:09.993Z,96937.66
2023-04-11T15:01:37.277Z,96925.63
2023-04-11T15:04:03.984Z,96913.41
2023-04-11T15:06:30.604Z,96913.59
2023-04-11T15:08:57.270Z,96915.25
2023-04-11T15:11:23.872Z,96915.97
2023-04-11T15:13:50.523Z,96908.53
2023-04-11T15:16:18.668Z,96912.16
2023-04-11T15:18:46.032Z,96910.66
2023-04-11T15:21:12.694Z,96906.81
2023-04-11T15:23:39.317Z,96905.59
2023-04-11T15:26:06.034Z,96896.25
2023-04-11T15:28:33.936Z,96901.97
2023-04-11T15:31:00.679Z,96897.81
2023-04-11T15:33:27.404Z,96898.88
2023-04-11T15:35:54.447Z,96886.81
2023-04-11T15:38:21.118Z,96881.03
2023-04-11T15:40:51.076Z,96871.16
2023-04-11T15:43:17.700Z,96875.75
2023-04-11T15:45:44.310Z,96877.91
2023-04-11T15:48:11.147Z,96877.38
2023-04-11T15:50:37.791Z,96867.75
2023-04-11T15:53:04.573Z,96872.66
2023-04-11T15:55:31.238Z,96862.81
2023-04-11T15:57:57.922Z,96860.38
2023-04-11T16:00:24.851Z,96848.63
2023-04-11T16:02:51.853Z,96848.84
2023-04-11T16:05:18.702Z,96854.09
2023-04-11T16:07:45.397Z,96850.00
2023-04-11T16:10:13.122Z,96844.84
2023-04-11T16:12:39.789Z,96840.31
2023-04-11T16:15:07.233Z,96844.91
2023-04-11T16:17:33.928Z,96837.97
2023-04-11T16:20:00.678Z,96848.66
2023-04-11T16:22:27.313Z,96842.56
2023-04-11T16:24:53.895Z,96846.94
2023-04-11T16:27:20.542Z,96843.75
2023-04-11T16:29:47.246Z,96848.03
2023-04-11T16:32:13.976Z,96852.13
2023-04-11T16:34:40.591Z,96859.91
2023-04-11T16:37:07.240Z,96845.19
2023-04-11T16:39:33.877Z,96839.28
2023-04-11T16:42:00.492Z,96833.31
2023-04-11T16:44:27.154Z,96840.97
2023-04-11T16:46:56.642Z,96822.94
2023-04-11T16:49:23.245Z,96826.34
2023-04-11T16:51:50.709Z,96826.03
2023-04-11T16:54:17.323Z,96822.94
2023-04-11T16:56:44.028Z,96825.41
2023-04-11T16:59:10.665Z,96823.28
2023-04-11T17:01:38.115Z,96814.91
2023-04-11T17:04:04.963Z,96819.03
2023-04-11T17:06:31.669Z,96822.19
2023-04-11T17:08:58.301Z,96822.19
2023-04-11T17:11:25.002Z,96818.22
2023-04-11T17:13:51.594Z,96813.00
2023-04-11T17:16:18.373Z,96815.13
2023-04-11T17:18:45.196Z,96813.44
2023-04-11T17:21:11.821Z,96812.75
2023-04-11T17:23:43.014Z,96805.63
2023-04-11T17:26:10.626Z,96812.75
2023-04-11T17:28:37.794Z,96811.13
2023-04-11T17:31:14.385Z,96815.63
2023-04-11T17:33:41.871Z,96809.97
2023-04-11T17:36:09.222Z,96813.44
2023-04-11T17:38:36.950Z,96808.84
2023-04-11T17:41:13.739Z,96797.72
2023-04-11T17:43:42.755Z,96806.72
2023-04-11T17:46:09.551Z,96805.50
2023-04-11T17:48:36.425Z,96795.59
2023-04-11T17:51:06.004Z,96798.41
2023-04-11T17:53:32.994Z,96799.44
2023-04-11T17:56:02.944Z,96796.50
2023-04-11T17:58:41.567Z,96799.38
2023-04-11T18:01:09.160Z,96796.75
2023-04-11T18:03:36.055Z,96798.63
2023-04-11T18:06:03.012Z,96801.09
2023-04-11T18:08:46.828Z,96808.84
2023-04-11T18:11:16.267Z,96806.00
2023-04-11T18:13:46.413Z,96806.97
2023-04-11T18:16:14.402Z,96806.25
2023-04-11T18:18:41.094Z,96812.38
2023-04-11T18:21:08.112Z,96807.88
2023-04-11T18:23:34.991Z,96811.84
2023-04-11T18:26:01.624Z,96813.63
2023-04-11T18:28:28.483Z,96803.66
2023-04-11T18:30:55.183Z,96803.66
2023-04-11T18:33:22.155Z,96808.22
2023-04-11T18:35:48.868Z,96807.41
2023-04-11T18:38:16.272Z,96808.88
2023-04-11T18:40:46.007Z,96805.59
2023-04-11T18:43:13.079Z,96803.75
2023-04-11T18:45:40.926Z,96793.19
2023-04-11T18:48:08.839Z,96804.09
2023-04-11T18:50:36.464Z,96810.06
2023-04-11T18:53:06.006Z,96803.13
2023-04-11T18:55:34.308Z,96801.69
2023-04-11T18:58:01.266Z,96810.34
2023-04-11T19:00:28.341Z,96813.47
2023-04-11T19:02:55.212Z,96823.59
2023-04-11T19:05:23.893Z,96816.38
2023-04-11T19:07:50.780Z,96815.91
2023-04-11T19:10:18.116Z,96814.75
2023-04-11T19:12:45.875Z,96819.81
2023-04-11T19:15:12.633Z,96821.31
2023-04-11T19:17:39.401Z,96820.50
2023-04-11T19:20:06.864Z,96822.16
2023-04-11T19:22:34.233Z,96815.41
2023-04-11T19:25:01.073Z,96807.63
2023-04-11T19:27:27.759Z,96802.56
2023-04-11T19:29:54.438Z,96809.34
2023-04-11T19:32:21.054Z,96813.03
2023-04-11T19:34:47.739Z,96809.03
2023-04-11T19:37:14.407Z,96813.69
2023-04-11T19:39:40.996Z,96803.94
2023-04-11T19:42:07.683Z,96802.69
2023-04-11T19:44:34.366Z,96800.38
2023-04-11T19:47:01.293Z,96794.97
2023-04-11T19:49:27.910Z,96786.69
2023-04-11T19:51:54.602Z,96781.31
2023-04-11T19:54:21.264Z,96771.81
2023-04-11T19:56:47.962Z,96771.34
2023-04-11T19:59:15.174Z,96775.22
2023-04-11T20:01:41.891Z,96763.38
2023-04-11T20:04:08.732Z,96750.59
2023-04-11T20:06:35.552Z,96746.97
2023-04-11T20:09:02.380Z,96742.28
2023-04-11T20:11:31.321Z,96744.03
2023-04-11T20:13:58.093Z,96744.13
2023-04-11T20:16:25.150Z,96737.09
2023-04-11T20:18:51.868Z,96736.84
2023-04-11T20:21:18.469Z,96737.75
2023-04-11T20:23:45.094Z,96738.22
2023-04-11T20:26:11.715Z,96740.81
2023-04-11T20:28:38.346Z,96731.69
2023-04-11T20:31:05.574Z,96733.59
2023-04-11T20:33:32.202Z,96729.25
2023-04-11T20:35:59.076Z,96732.34
2023-04-11T20:38:25.822Z,96732.56
2023-04-11T20:40:52.446Z,96736.00
2023-04-11T20:43:19.108Z,96746.19
2023-04-11T20:45:45.835Z,96743.75
2023-04-11T20:48:12.700Z,96736.13
2023-04-11T20:50:40.555Z,96737.31
2023-04-11T20:53:07.307Z,96732.75
2023-04-11T20:55:33.983Z,96724.78
2023-04-11T20:58:00.603Z,96707.78
2023-04-11T21:00:27.234Z,96706.22
2023-04-11T21:02:54.186Z,96698.03
2023-04-11T21:05:20.965Z,96697.22
2023-04-11T21:07:47.605Z,96690.88
2023-04-11T21:10:14.202Z,96687.03
2023-04-11T21:12:41.328Z,96676.72
2023-04-11T21:15:08.723Z,96674.59
2023-04-11T21:17:35.397Z,96666.41
2023-04-11T21:20:03.437Z,96657.53
2023-04-11T21:22:30.106Z,96657.28
2023-04-11T21:24:56.983Z,96657.53
2023-04-11T21:27:23.635Z,96655.53
2023-04-11T21:29:50.250Z,96646.75
2023-04-11T21:32:17.065Z,96646.25
2023-04-11T21:34:43.746Z,96641.22
2023-04-11T21:37:10.414Z,96645.53
2023-04-11T21:39:37.068Z,96631.38
2023-04-11T21:42:03.771Z,96625.97
2023-04-11T21:44:30.413Z,96623.19
2023-04-11T21:46:58.045Z,96627.28
2023-04-11T21:49:24.913Z,96621.25
2023-04-11T21:51:51.602Z,96620.91
2023-04-11T21:54:18.215Z,96618.22
2023-04-11T21:56:45.013Z,96626.31
2023-04-11T21:59:11.617Z,96637.19
2023-04-11T22:01:38.329Z,96653.50
2023-04-11T22:04:05.186Z,96646.22
2023-04-11T22:06:32.005Z,96622.88
2023-04-11T22:08:58.612Z,96627.44
2023-04-11T22:11:25.292Z,96614.22
2023-04-11T22:13:51.890Z,96612.56
2023-04-11T22:16:18.856Z,96615.03
2023-04-11T22:18:45.848Z,96616.44
2023-04-11T22:21:15.521Z,96613.75
2023-04-11T22:23:42.140Z,96618.78
2023-04-11T22:26:08.759Z,96612.25
2023-04-11T22:28:35.367Z,96607.00
2023-04-11T22:31:01.961Z,96595.50
2023-04-11T22:33:28.623Z,96587.41
2023-04-11T22:35:55.255Z,96593.28
2023-04-11T22:38:21.923Z,96583.06
2023-04-11T22:40:48.632Z,96571.38
2023-04-11T22:43:15.236Z,96571.88
2023-04-11T22:45:41.906Z,96556.53
2023-04-11T22:48:08.626Z,96563.28
2023-04-11T22:50:35.274Z,96555.06
2023-04-11T22:53:01.920Z,96544.78
2023-04-11T22:55:31.951Z,96544.78
2023-04-11T22:57:58.596Z,96538.81
2023-04-11T23:00:25.233Z,96533.44
2023-04-11T23:02:51.846Z,96527.47
2023-04-11T23:05:18.980Z,96526.28
2023-04-11T23:07:45.633Z,96524.69
2023-04-11T23:10:12.397Z,96520.09
2023-04-11T23:12:39.062Z,96510.22
2023-04-11T23:15:06.079Z,96507.03
2023-04-11T23:17:32.702Z,96521.56
2023-04-11T23:19:59.657Z,96522.38
2023-04-11T23:22:26.410Z,96523.13
2023-04-11T23:24:53.064Z,96521.41
2023-04-11T23:27:20.604Z,96519.66
2023-04-11T23:29:53.458Z,96519.66
2023-04-11T23:32:20.151Z,96514.47
2023-04-11T23:34:46.872Z,96508.81
2023-04-11T23:37:13.503Z,96504.56
2023-04-11T23:39:40.161Z,96505.69
2023-04-11T23:42:06.883Z,96489.94
2023-04-11T23:44:33.521Z,96480.06
2023-04-11T23:47:00.150Z,96478.22
2023-04-11T23:49:26.821Z,96476.66
2023-04-11T23:51:53.444Z,96466.34
2023-04-11T23:54:20.085Z,96454.91
2023-04-11T23:56:46.754Z,96456.56
2023-04-11T23:59:13.402Z,96451.75
